Time;durP1;ratioP1;P1;durP2;ratioP2;P2;SDS_P1;SDS_P2;PMS_P1;PMS_P2;Temp;Humidity;BMP_temperature;BMP_pressure;BME280_temperature;BME280_humidity;BME280_pressure;Samples;Min_cycle;Max_cycle;Signal;HPM_P1;HPM_P2
2021/01/29 00:00:25;;;;;;;4.32;1.95;;;;;;;;;;5067238;28;20174;-76
2021/01/29 00:02:51;;;;;;;;;;;;;;;;;;5066116;28;20028;-77
2021/01/29 00:05:18;;;;;;;3.72;1.77;;;;;;;;;;5065328;28;20286;-76
2021/01/29 00:07:44;;;;;;;4.55;1.80;;;;;;;;;;5067414;28;20029;-73
2021/01/29 00:10:10;;;;;;;2.97;1.83;;;;;;;;;;5065565;28;20106;-74
2021/01/29 00:12:36;;;;;;;7.43;2.20;;;;;;;;;;5067223;28;20050;-74
2021/01/29 00:15:03;;;;;;;2.67;1.70;;;;;;;;;;5067358;28;20021;-74
2021/01/29 00:17:29;;;;;;;3.20;2.17;;;;;;;;;;5067874;28;20499;-73
2021/01/29 00:19:55;;;;;;;4.88;2.30;;;;;;;;;;5068312;28;20328;-74
2021/01/29 00:22:21;;;;;;;3.55;2.05;;;;;;;;;;5067731;28;20029;-72
2021/01/29 00:24:47;;;;;;;5.47;1.65;;;;;;;;;;5066203;28;20056;-74
2021/01/29 00:27:14;;;;;;;3.45;1.70;;;;;;;;;;5067244;28;20552;-73
2021/01/29 00:29:40;;;;;;;6.28;1.95;;;;;;;;;;5066716;28;20021;-73
2021/01/29 00:32:06;;;;;;;3.28;1.90;;;;;;;;;;5066640;28;20020;-74
2021/01/29 00:34:32;;;;;;;3.72;2.00;;;;;;;;;;5065652;28;20028;-74
2021/01/29 00:36:58;;;;;;;2.78;1.67;;;;;;;;;;5067249;28;20028;-73
2021/01/29 00:39:24;;;;;;;2.40;1.73;;;;;;;;;;5066306;28;20587;-73
2021/01/29 00:41:50;;;;;;;4.32;2.28;;;;;;;;;;5066099;28;20091;-75
2021/01/29 00:44:16;;;;;;;5.03;2.30;;;;;;;;;;5067781;28;20036;-74
2021/01/29 00:46:42;;;;;;;4.22;2.20;;;;;;;;;;5065747;28;20025;-74
2021/01/29 00:49:08;;;;;;;3.92;2.00;;;;;;;;;;5066175;28;20104;-74
2021/01/29 00:51:34;;;;;;;3.28;1.88;;;;;;;;;;5066178;28;20448;-75
2021/01/29 00:54:00;;;;;;;2.95;1.70;;;;;;;;;;5066047;28;20046;-75
2021/01/29 00:56:26;;;;;;;2.95;1.83;;;;;;;;;;5065667;28;20882;-74
2021/01/29 00:58:52;;;;;;;2.63;1.50;;;;;;;;;;5066025;28;20027;-73
2021/01/29 01:01:18;;;;;;;3.22;1.60;;;;;;;;;;5067518;28;20023;-74
2021/01/29 01:03:44;;;;;;;2.95;1.58;;;;;;;;;;5067302;28;20107;-73
2021/01/29 01:06:10;;;;;;;4.15;1.30;;;;;;;;;;5064484;28;20538;-73
2021/01/29 01:08:36;;;;;;;3.20;1.60;;;;;;;;;;5065455;28;20025;-74
2021/01/29 01:11:02;;;;;;;3.58;1.20;;;;;;;;;;5066955;28;20017;-73
2021/01/29 01:13:28;;;;;;;2.95;1.40;;;;;;;;;;5065421;28;20692;-72
2021/01/29 01:15:54;;;;;;;2.50;1.30;;;;;;;;;;5065490;28;20538;-74
2021/01/29 01:18:20;;;;;;;2.63;1.20;;;;;;;;;;5065457;28;20155;-75
2021/01/29 01:20:46;;;;;;;2.28;1.30;;;;;;;;;;5065682;28;20025;-74
2021/01/29 01:23:12;;;;;;;2.35;1.35;;;;;;;;;;5065041;28;20101;-74
2021/01/29 01:25:38;;;;;;;4.32;1.50;;;;;;;;;;5064669;28;20036;-74
2021/01/29 01:28:04;;;;;;;1.90;1.30;;;;;;;;;;5065687;28;20025;-73
2021/01/29 01:30:35;;;;;;;2.10;1.23;;;;;;;;;;5066018;28;20020;-74
2021/01/29 01:33:01;;;;;;;2.30;1.20;;;;;;;;;;5067654;28;20050;-74
2021/01/29 01:35:27;;;;;;;1.75;1.05;;;;;;;;;;5085241;28;20051;-73
2021/01/29 01:37:54;;;;;;;1.90;1.08;;;;;;;;;;5085985;28;20047;-74
2021/01/29 01:40:22;;;;;;;1.98;1.00;;;;;;;;;;5085544;28;20024;-72
2021/01/29 01:42:48;;;;;;;2.53;0.90;;;;;;;;;;5085120;28;20194;-73
2021/01/29 01:45:29;;;;;;;1.30;0.90;;;;;;;;;;5086334;28;20187;-74
2021/01/29 01:48:16;;;;;;;2.58;0.88;;;;;;;;;;5086827;28;20028;-74
2021/01/29 01:50:45;;;;;;;1.30;0.90;;;;;;;;;;5084787;28;20084;-74
2021/01/29 01:53:31;;;;;;;2.33;0.98;;;;;;;;;;5086778;28;20039;-74
2021/01/29 01:56:06;;;;;;;0.80;0.80;;;;;;;;;;5086020;28;20035;-74
2021/01/29 01:58:33;;;;;;;1.85;0.90;;;;;;;;;;5085718;28;20108;-74
2021/01/29 02:00:59;;;;;;;1.88;0.85;;;;;;;;;;5085465;28;20673;-74
2021/01/29 02:03:29;;;;;;;2.15;1.20;;;;;;;;;;5085567;28;20024;-74
2021/01/29 02:05:56;;;;;;;1.13;0.80;;;;;;;;;;5085247;28;20122;-75
2021/01/29 02:08:22;;;;;;;2.78;1.10;;;;;;;;;;5085235;28;20159;-75
2021/01/29 02:10:49;;;;;;;1.67;0.80;;;;;;;;;;5085556;28;20119;-75
2021/01/29 02:13:16;;;;;;;1.85;1.00;;;;;;;;;;5086973;28;20020;-74
2021/01/29 02:15:43;;;;;;;1.98;1.00;;;;;;;;;;5084825;28;20470;-74
2021/01/29 02:18:28;;;;;;;2.08;0.80;;;;;;;;;;5091345;28;20100;-75
2021/01/29 02:21:12;;;;;;;3.17;0.90;;;;;;;;;;5090496;28;20031;-74
2021/01/29 02:23:57;;;;;;;1.95;1.00;;;;;;;;;;5089376;28;20569;-74
2021/01/29 02:26:42;;;;;;;3.05;1.02;;;;;;;;;;5089774;28;20024;-74
2021/01/29 02:29:34;;;;;;;1.70;1.00;;;;;;;;;;5089272;28;20119;-74
2021/01/29 02:32:16;;;;;;;1.58;0.90;;;;;;;;;;5090449;28;20060;-74
2021/01/29 02:34:51;;;;;;;2.45;1.10;;;;;;;;;;5088250;28;20316;-74
2021/01/29 02:37:33;;;;;;;1.65;0.90;;;;;;;;;;5089415;28;20117;-74
2021/01/29 02:39:59;;;;;;;2.33;0.80;;;;;;;;;;5088974;28;20024;-74
2021/01/29 02:42:43;;;;;;;1.23;0.80;;;;;;;;;;5089078;28;20110;-75
2021/01/29 02:45:12;;;;;;;1.77;0.90;;;;;;;;;;5088328;28;20106;-74
2021/01/29 02:47:54;;;;;;;1.35;0.80;;;;;;;;;;5088712;28;20028;-73
2021/01/29 02:50:28;;;;;;;2.83;1.10;;;;;;;;;;5089242;28;20074;-73
2021/01/29 02:52:54;;;;;;;3.03;0.70;;;;;;;;;;5089009;28;20110;-73
2021/01/29 02:55:23;;;;;;;3.13;0.90;;;;;;;;;;5080587;28;20122;-73
2021/01/29 02:58:00;;;;;;;2.28;0.88;;;;;;;;;;5088480;28;20498;-75
2021/01/29 03:00:44;;;;;;;1.15;0.80;;;;;;;;;;5090223;28;20485;-73
2021/01/29 03:03:22;;;;;;;3.10;0.90;;;;;;;;;;5091296;28;20028;-75
2021/01/29 03:05:54;;;;;;;2.13;0.70;;;;;;;;;;5090089;28;20032;-72
2021/01/29 03:08:28;;;;;;;2.08;0.77;;;;;;;;;;5090968;28;20047;-73
2021/01/29 03:10:56;;;;;;;1.75;1.00;;;;;;;;;;5092118;28;20020;-73
2021/01/29 03:13:25;;;;;;;1.70;0.88;;;;;;;;;;5074929;28;20024;-74
2021/01/29 03:15:55;;;;;;;1.48;0.80;;;;;;;;;;5070872;28;20025;-73
2021/01/29 03:18:29;;;;;;;2.22;0.80;;;;;;;;;;5070652;28;20031;-73
2021/01/29 03:21:02;;;;;;;1.30;0.88;;;;;;;;;;5071914;28;20024;-74
2021/01/29 03:23:37;;;;;;;2.08;0.88;;;;;;;;;;5072282;28;20020;-73
2021/01/29 03:26:06;;;;;;;3.10;0.98;;;;;;;;;;5070126;28;20081;-74
2021/01/29 03:28:36;;;;;;;1.58;0.90;;;;;;;;;;5069815;28;20540;-75
2021/01/29 03:31:03;;;;;;;2.95;1.00;;;;;;;;;;5071885;28;20033;-74
2021/01/29 03:33:32;;;;;;;2.15;0.80;;;;;;;;;;5073976;28;20016;-86
2021/01/29 03:36:00;;;;;;;2.25;0.90;;;;;;;;;;5073218;28;20051;-80
2021/01/29 03:38:32;;;;;;;2.35;0.90;;;;;;;;;;5071414;28;20494;-80
2021/01/29 03:41:20;;;;;;;6.18;1.38;;;;;;;;;;5071133;28;20579;-78
2021/01/29 03:43:52;;;;;;;4.15;1.10;;;;;;;;;;5071671;28;20652;-77
2021/01/29 03:46:28;;;;;;;2.72;1.20;;;;;;;;;;5070985;28;20029;-74
2021/01/29 03:49:03;;;;;;;1.90;1.00;;;;;;;;;;5070199;28;20032;-73
2021/01/29 03:51:36;;;;;;;3.03;1.05;;;;;;;;;;5071202;28;20020;-74
2021/01/29 03:54:10;;;;;;;1.38;0.80;;;;;;;;;;5071496;28;20020;-77
2021/01/29 03:56:44;;;;;;;1.85;0.80;;;;;;;;;;5071635;28;20054;-79
2021/01/29 03:59:29;;;;;;;2.90;1.00;;;;;;;;;;5070518;28;20032;-80
2021/01/29 04:02:00;;;;;;;2.47;0.80;;;;;;;;;;5069838;28;20029;-77
2021/01/29 04:04:34;;;;;;;1.83;0.60;;;;;;;;;;5104397;28;20111;-78
2021/01/29 04:07:03;;;;;;;5.32;0.60;;;;;;;;;;5104631;28;20077;-77
2021/01/29 04:09:35;;;;;;;2.40;0.65;;;;;;;;;;5107914;28;20050;-77
2021/01/29 04:12:03;;;;;;;3.10;0.63;;;;;;;;;;5108682;28;20016;-79
2021/01/29 04:33:10;;;;;;;2.65;0.80;;;;;;;;;;5112769;28;20030;-83
2021/01/29 04:35:37;;;;;;;3.85;0.80;;;;;;;;;;5110208;28;20035;-82
2021/01/29 04:38:09;;;;;;;1.08;0.60;;;;;;;;;;5110000;28;20027;-80
2021/01/29 04:40:38;;;;;;;2.97;0.90;;;;;;;;;;5110090;28;20027;-80
2021/01/29 04:43:14;;;;;;;1.73;0.80;;;;;;;;;;5110333;28;20038;-82
2021/01/29 04:45:43;;;;;;;0.85;0.60;;;;;;;;;;5111331;28;20020;-83
2021/01/29 04:48:39;;;;;;;2.55;0.80;;;;;;;;;;5112846;28;20423;-89
2021/01/29 04:51:05;;;;;;;3.03;0.80;;;;;;;;;;5095949;28;20036;-91
2021/01/29 04:53:37;;;;;;;1.65;0.80;;;;;;;;;;5106847;22;20493;-82
2021/01/29 04:56:22;;;;;;;2.75;1.10;;;;;;;;;;5028577;28;20029;-80
2021/01/29 04:58:48;;;;;;;1.85;0.70;;;;;;;;;;5028989;28;20448;-80
2021/01/29 05:01:23;;;;;;;1.98;0.60;;;;;;;;;;5032484;28;20024;-78
2021/01/29 05:03:52;;;;;;;3.60;0.73;;;;;;;;;;5047312;28;20027;-79
2021/01/29 05:06:21;;;;;;;2.95;0.47;;;;;;;;;;5046807;28;20078;-79
2021/01/29 05:08:53;;;;;;;5.57;0.70;;;;;;;;;;5047123;28;20495;-79
2021/01/29 05:11:29;;;;;;;3.30;0.50;;;;;;;;;;5066089;28;20048;-82
2021/01/29 05:14:00;;;;;;;4.88;0.68;;;;;;;;;;5055206;28;20029;-80
2021/01/29 05:16:35;;;;;;;2.72;0.60;;;;;;;;;;5049940;28;20044;-80
2021/01/29 05:19:19;;;;;;;3.03;0.77;;;;;;;;;;5048171;28;20050;-79
2021/01/29 05:22:03;;;;;;;16.90;0.82;;;;;;;;;;5047804;28;20021;-79
2021/01/29 05:24:48;;;;;;;5.55;0.50;;;;;;;;;;5045846;28;20062;-77
2021/01/29 05:27:33;;;;;;;2.78;0.60;;;;;;;;;;5047038;28;20037;-79
2021/01/29 05:30:02;;;;;;;2.17;0.60;;;;;;;;;;5046923;28;20108;-79
2021/01/29 05:32:54;;;;;;;0.65;0.50;;;;;;;;;;5046315;28;20029;-78
2021/01/29 05:35:29;;;;;;;1.90;0.73;;;;;;;;;;5015340;28;20482;-79
2021/01/29 05:38:14;;;;;;;2.60;0.60;;;;;;;;;;5046556;28;20115;-79
2021/01/29 05:40:44;;;;;;;0.82;0.55;;;;;;;;;;5046600;28;20025;-79
2021/01/29 05:43:46;;;;;;;5.15;0.60;;;;;;;;;;5048134;28;20494;-80
2021/01/29 05:46:20;;;;;;;1.77;0.50;;;;;;;;;;4970651;28;20556;-79
2021/01/29 05:49:02;;;;;;;2.25;0.68;;;;;;;;;;5039847;28;20033;-78
2021/01/29 05:51:51;;;;;;;2.28;0.50;;;;;;;;;;5048459;28;20017;-77
2021/01/29 05:54:20;;;;;;;4.47;0.80;;;;;;;;;;5040577;28;20048;-79
2021/01/29 05:56:46;;;;;;;0.60;0.57;;;;;;;;;;5051296;28;20021;-78
2021/01/29 05:59:18;;;;;;;3.78;0.63;;;;;;;;;;5050689;28;20025;-78
2021/01/29 06:02:03;;;;;;;2.95;0.93;;;;;;;;;;5050986;28;20123;-79
2021/01/29 06:05:08;;;;;;;2.05;0.68;;;;;;;;;;5050888;28;20116;-77
2021/01/29 06:07:37;;;;;;;4.88;1.02;;;;;;;;;;5449665;22;20020;-82
2021/01/29 06:10:21;;;;;;;2.78;1.00;;;;;;;;;;5060691;28;20040;-85
2021/01/29 06:40:14;;;;;;;0.80;0.30;;;;;;;;;;5071993;28;20049;-79
2021/01/29 06:42:59;;;;;;;0.38;0.30;;;;;;;;;;5071938;28;20056;-79
2021/01/29 06:45:34;;;;;;;3.03;0.32;;;;;;;;;;5054986;28;20486;-76
2021/01/29 06:48:09;;;;;;;1.02;0.40;;;;;;;;;;5054796;28;20032;-76
2021/01/29 06:50:55;;;;;;;0.38;0.30;;;;;;;;;;5054807;28;20112;-77
2021/01/29 06:53:33;;;;;;;2.00;0.50;;;;;;;;;;5054628;28;20077;-77
2021/01/29 06:56:11;;;;;;;1.23;0.30;;;;;;;;;;5054131;28;20024;-78
2021/01/29 06:58:37;;;;;;;1.67;0.45;;;;;;;;;;5054760;28;20132;-77
2021/01/29 07:01:37;;;;;;;0.50;0.40;;;;;;;;;;5054165;28;20047;-78
2021/01/29 07:04:32;;;;;;;0.50;0.40;;;;;;;;;;5052914;28;20029;-78
2021/01/29 07:07:14;;;;;;;0.80;0.32;;;;;;;;;;5003508;28;20039;-79
2021/01/29 07:09:52;;;;;;;2.38;0.40;;;;;;;;;;5053530;28;20017;-80
2021/01/29 07:12:35;;;;;;;4.32;0.70;;;;;;;;;;5053047;28;20039;-79
2021/01/29 07:15:01;;;;;;;2.00;0.60;;;;;;;;;;5070182;28;20039;-79
2021/01/29 07:17:40;;;;;;;2.10;0.43;;;;;;;;;;5053132;28;20124;-78
2021/01/29 07:23:31;;;;;;;1.35;0.50;;;;;;;;;;5072149;28;20363;-79
2021/01/29 07:26:13;;;;;;;3.75;0.60;;;;;;;;;;5070626;28;20028;-78
2021/01/29 07:28:45;;;;;;;5.15;0.70;;;;;;;;;;5053691;28;20124;-78
2021/01/29 07:31:11;;;;;;;5.75;0.73;;;;;;;;;;5053720;28;20105;-78
2021/01/29 07:33:40;;;;;;;1.35;0.50;;;;;;;;;;5053413;28;20039;-79
2021/01/29 07:36:12;;;;;;;0.40;0.40;;;;;;;;;;5052767;28;20444;-78
2021/01/29 07:38:38;;;;;;;0.60;0.50;;;;;;;;;;5053513;28;20024;-79
2021/01/29 07:41:24;;;;;;;2.03;0.50;;;;;;;;;;5071028;28;20043;-78
2021/01/29 07:43:59;;;;;;;2.35;0.73;;;;;;;;;;5053079;28;20020;-81
2021/01/29 07:49:32;;;;;;;1.65;0.55;;;;;;;;;;5071050;28;20031;-78
2021/01/29 07:52:21;;;;;;;1.65;0.60;;;;;;;;;;5052683;28;20103;-79
2021/01/29 07:55:20;;;;;;;0.73;0.40;;;;;;;;;;5038956;28;20064;-78
2021/01/29 07:57:52;;;;;;;1.65;0.60;;;;;;;;;;5019829;28;20029;-80
2021/01/29 08:00:18;;;;;;;1.30;0.60;;;;;;;;;;5052715;28;20044;-80
2021/01/29 08:02:54;;;;;;;2.65;0.90;;;;;;;;;;5070826;28;20071;-81
2021/01/29 08:05:29;;;;;;;1.42;0.85;;;;;;;;;;5051789;28;20031;-78
2021/01/29 08:08:10;;;;;;;3.03;0.60;;;;;;;;;;5070049;28;20025;-78
2021/01/29 08:10:43;;;;;;;1.08;0.50;;;;;;;;;;5052435;28;20035;-79
2021/01/29 08:13:36;;;;;;;0.95;0.50;;;;;;;;;;5051901;28;20111;-79
2021/01/29 08:16:02;;;;;;;1.23;0.70;;;;;;;;;;5051368;28;20051;-80
2021/01/29 08:18:32;;;;;;;1.15;0.65;;;;;;;;;;5052010;28;20025;-79
2021/01/29 08:20:58;;;;;;;1.10;0.60;;;;;;;;;;5051716;28;20050;-79
2021/01/29 08:23:33;;;;;;;1.92;0.50;;;;;;;;;;5051327;28;20028;-78
2021/01/29 08:26:02;;;;;;;2.00;0.65;;;;;;;;;;5050793;28;20023;-77
2021/01/29 08:28:47;;;;;;;0.82;0.63;;;;;;;;;;5050720;28;20093;-78
2021/01/29 08:31:13;;;;;;;1.23;0.40;;;;;;;;;;5051054;28;20021;-78
2021/01/29 08:33:48;;;;;;;1.30;0.50;;;;;;;;;;5051363;28;20025;-78
2021/01/29 08:36:23;;;;;;;1.15;0.50;;;;;;;;;;5050269;28;20039;-77
2021/01/29 08:38:59;;;;;;;1.63;0.80;;;;;;;;;;5068841;28;20119;-77
2021/01/29 08:41:25;;;;;;;0.90;0.50;;;;;;;;;;5050996;28;20023;-78
2021/01/29 08:44:00;;;;;;;2.42;0.80;;;;;;;;;;5068616;28;20020;-77
2021/01/29 08:46:29;;;;;;;0.85;0.60;;;;;;;;;;5050000;28;20027;-78
2021/01/29 08:49:22;;;;;;;1.95;0.70;;;;;;;;;;5050561;28;20032;-77
2021/01/29 08:52:00;;;;;;;1.13;0.40;;;;;;;;;;5047501;28;20039;-77
2021/01/29 08:54:41;;;;;;;0.82;0.60;;;;;;;;;;5067976;28;20028;-78
2021/01/29 08:57:16;;;;;;;3.95;0.70;;;;;;;;;;5050353;28;20025;-77
2021/01/29 08:59:43;;;;;;;0.50;0.40;;;;;;;;;;5050296;28;20028;-77
2021/01/29 09:02:28;;;;;;;0.95;0.40;;;;;;;;;;5050400;28;20035;-77
2021/01/29 09:05:04;;;;;;;0.50;0.35;;;;;;;;;;5050413;28;20104;-79
2021/01/29 09:07:31;;;;;;;1.63;0.75;;;;;;;;;;5050497;28;20332;-79
2021/01/29 09:10:08;;;;;;;1.92;0.80;;;;;;;;;;5050507;28;20048;-79
2021/01/29 09:12:36;;;;;;;2.83;0.98;;;;;;;;;;5049869;28;20051;-79
2021/01/29 09:15:13;;;;;;;3.42;0.90;;;;;;;;;;5048986;28;20055;-79
2021/01/29 09:17:53;;;;;;;1.92;0.70;;;;;;;;;;5050344;28;20028;-80
2021/01/29 09:20:41;;;;;;;8.20;3.38;;;;;;;;;;5068166;28;20020;-77
2021/01/29 09:23:09;;;;;;;4.03;1.35;;;;;;;;;;5049964;28;20020;-79
2021/01/29 09:25:35;;;;;;;4.38;1.10;;;;;;;;;;5048263;28;20047;-79
2021/01/29 09:28:16;;;;;;;2.85;0.90;;;;;;;;;;5050187;28;20119;-78
2021/01/29 09:30:56;;;;;;;3.38;0.70;;;;;;;;;;5049641;28;20032;-79
2021/01/29 09:33:42;;;;;;;4.18;0.80;;;;;;;;;;5050421;28;20179;-80
2021/01/29 09:36:14;;;;;;;3.83;1.00;;;;;;;;;;5049597;28;20025;-79
2021/01/29 09:38:54;;;;;;;3.95;0.95;;;;;;;;;;5050044;28;20040;-79
2021/01/29 09:41:53;;;;;;;5.25;1.13;;;;;;;;;;5050028;28;20020;-78
2021/01/29 09:44:23;;;;;;;2.90;0.82;;;;;;;;;;5017016;28;20060;-78
2021/01/29 09:46:53;;;;;;;5.30;1.08;;;;;;;;;;5050690;28;20990;-79
2021/01/29 09:49:22;;;;;;;4.68;1.17;;;;;;;;;;5050337;28;20027;-79
2021/01/29 09:51:48;;;;;;;5.53;1.20;;;;;;;;;;5050095;28;20511;-78
2021/01/29 09:54:19;;;;;;;4.65;1.65;;;;;;;;;;5050278;28;20047;-79
2021/01/29 09:56:50;;;;;;;5.70;1.13;;;;;;;;;;5050575;28;20032;-81
2021/01/29 09:59:23;;;;;;;4.50;1.00;;;;;;;;;;5050422;28;20505;-78
2021/01/29 10:01:56;;;;;;;4.63;1.00;;;;;;;;;;5050377;28;20028;-80
2021/01/29 10:04:28;;;;;;;3.88;0.90;;;;;;;;;;5050184;28;20027;-79
2021/01/29 10:06:57;;;;;;;3.50;0.70;;;;;;;;;;5050767;28;20123;-81
2021/01/29 10:09:34;;;;;;;3.13;0.70;;;;;;;;;;5050797;28;20020;-80
2021/01/29 10:12:04;;;;;;;5.72;0.85;;;;;;;;;;5050762;28;20627;-79
2021/01/29 10:14:33;;;;;;;4.63;0.95;;;;;;;;;;5050207;28;20033;-82
2021/01/29 10:17:04;;;;;;;5.35;1.20;;;;;;;;;;5069019;28;20048;-81
2021/01/29 10:19:41;;;;;;;4.90;0.82;;;;;;;;;;5051343;28;20106;-82
2021/01/29 10:22:35;;;;;;;6.55;0.85;;;;;;;;;;5050846;28;20027;-82
2021/01/29 10:25:19;;;;;;;5.57;1.10;;;;;;;;;;5050756;28;20025;-81
2021/01/29 10:28:00;;;;;;;5.25;1.00;;;;;;;;;;5050782;28;20032;-82
2021/01/29 10:30:46;;;;;;;6.88;1.25;;;;;;;;;;5058891;28;20056;-82
2021/01/29 10:36:22;;;;;;;5.32;0.90;;;;;;;;;;5053375;28;20103;-80
2021/01/29 10:38:54;;;;;;;7.45;1.17;;;;;;;;;;5038580;28;20399;-81
2021/01/29 10:41:39;;;;;;;5.50;1.42;;;;;;;;;;5034423;28;20029;-81
2021/01/29 10:44:11;;;;;;;7.72;1.50;;;;;;;;;;5034523;28;20029;-82
2021/01/29 10:46:43;;;;;;;4.47;1.20;;;;;;;;;;5033554;28;20564;-82
2021/01/29 10:49:15;;;;;;;8.48;1.55;;;;;;;;;;5034412;28;20127;-82
2021/01/29 10:51:52;;;;;;;11.48;1.23;;;;;;;;;;5035886;28;20487;-81
2021/01/29 10:54:18;;;;;;;5.23;1.60;;;;;;;;;;5035782;28;20025;-80
2021/01/29 10:56:45;;;;;;;4.55;1.20;;;;;;;;;;5035861;28;20317;-80
2021/01/29 10:59:18;;;;;;;6.78;1.17;;;;;;;;;;5036269;28;20120;-80
2021/01/29 11:01:55;;;;;;;8.13;2.33;;;;;;;;;;5035479;28;20071;-81
2021/01/29 11:04:39;;;;;;;6.10;1.65;;;;;;;;;;5035220;28;20060;-82
2021/01/29 11:07:19;;;;;;;4.90;1.63;;;;;;;;;;5035597;28;20068;-84
2021/01/29 11:09:51;;;;;;;4.97;1.10;;;;;;;;;;5035377;28;20246;-82
2021/01/29 11:12:39;;;;;;;7.70;2.30;;;;;;;;;;5035357;28;20017;-83
2021/01/29 11:15:12;;;;;;;6.63;1.30;;;;;;;;;;5035419;28;20021;-81
2021/01/29 11:17:47;;;;;;;4.72;1.00;;;;;;;;;;5053611;28;20025;-78
2021/01/29 11:20:25;;;;;;;6.60;2.50;;;;;;;;;;5046715;28;20032;-83
2021/01/29 11:22:51;;;;;;;;;;;;;;;;;;5055125;28;20029;-82
2021/01/29 11:25:33;;;;;;;6.65;2.08;;;;;;;;;;5054678;28;19904;-81
2021/01/29 11:27:59;;;;;;;7.20;1.13;;;;;;;;;;5055198;28;20020;-82
2021/01/29 11:30:31;;;;;;;2.22;0.85;;;;;;;;;;5054735;28;20046;-82
2021/01/29 11:33:07;;;;;;;2.33;0.70;;;;;;;;;;5047028;28;20480;-82
2021/01/29 11:35:54;;;;;;;3.28;0.98;;;;;;;;;;5033711;28;20446;-80
2021/01/29 11:38:33;;;;;;;3.80;1.42;;;;;;;;;;5052019;28;20032;-80
2021/01/29 11:41:02;;;;;;;4.45;0.90;;;;;;;;;;5034471;28;20029;-81
2021/01/29 11:43:34;;;;;;;4.78;0.90;;;;;;;;;;5034725;28;20128;-81
2021/01/29 11:46:08;;;;;;;3.25;0.88;;;;;;;;;;5034624;28;20108;-82
2021/01/29 11:48:40;;;;;;;2.72;0.70;;;;;;;;;;5033770;28;20021;-82
2021/01/29 11:51:18;;;;;;;3.38;0.80;;;;;;;;;;5037121;28;20039;-81
2021/01/29 11:53:49;;;;;;;2.35;0.80;;;;;;;;;;5034910;28;20029;-81
2021/01/29 11:56:18;;;;;;;2.83;0.80;;;;;;;;;;5054193;28;20024;-81
2021/01/29 11:59:03;;;;;;;4.55;0.93;;;;;;;;;;5036272;28;20090;-81
2021/01/29 12:01:28;;;;;;;3.25;0.88;;;;;;;;;;5034269;28;20032;-82
2021/01/29 12:04:03;;;;;;;2.40;0.80;;;;;;;;;;5034029;28;20029;-80
2021/01/29 12:06:32;;;;;;;3.45;0.88;;;;;;;;;;5033342;28;20059;-79
2021/01/29 12:09:04;;;;;;;2.58;0.80;;;;;;;;;;5033569;28;20060;-80
2021/01/29 12:11:36;;;;;;;4.47;0.90;;;;;;;;;;5033009;28;20024;-79
2021/01/29 12:14:05;;;;;;;3.13;1.00;;;;;;;;;;5046493;28;20568;-78
2021/01/29 12:16:35;;;;;;;4.10;1.20;;;;;;;;;;5054674;28;20028;-79
2021/01/29 12:19:02;;;;;;;4.60;0.90;;;;;;;;;;5053773;28;20040;-79
2021/01/29 12:21:43;;;;;;;3.05;1.10;;;;;;;;;;5053134;28;20024;-77
2021/01/29 12:24:29;;;;;;;2.83;1.13;;;;;;;;;;5058027;28;20096;-78
2021/01/29 12:27:04;;;;;;;5.75;1.05;;;;;;;;;;5056064;28;20390;-77
2021/01/29 12:29:46;;;;;;;3.85;1.00;;;;;;;;;;5053293;28;20112;-78
2021/01/29 12:32:21;;;;;;;6.68;1.00;;;;;;;;;;5052558;28;20024;-78
2021/01/29 12:34:55;;;;;;;4.75;1.30;;;;;;;;;;5053446;28;20028;-77
2021/01/29 12:37:27;;;;;;;3.55;1.30;;;;;;;;;;5053364;28;20031;-78
2021/01/29 12:39:54;;;;;;;5.15;1.08;;;;;;;;;;5053323;28;20360;-78
2021/01/29 12:42:25;;;;;;;5.97;1.05;;;;;;;;;;5051896;28;20029;-79
2021/01/29 12:44:57;;;;;;;3.38;0.80;;;;;;;;;;5046031;28;20025;-80
2021/01/29 12:47:29;;;;;;;6.15;1.35;;;;;;;;;;5043163;28;20431;-81
2021/01/29 12:49:56;;;;;;;4.32;1.50;;;;;;;;;;5051248;28;20028;-78
2021/01/29 12:52:32;;;;;;;5.15;1.80;;;;;;;;;;5051984;28;20039;-78
2021/01/29 12:55:01;;;;;;;5.18;1.20;;;;;;;;;;5051356;28;20024;-78
2021/01/29 12:57:28;;;;;;;4.97;1.58;;;;;;;;;;5050393;28;20051;-78
2021/01/29 13:00:00;;;;;;;3.70;1.10;;;;;;;;;;5050708;28;20078;-79
2021/01/29 13:02:32;;;;;;;4.80;1.10;;;;;;;;;;5050732;28;20021;-78
2021/01/29 13:05:16;;;;;;;5.70;1.23;;;;;;;;;;5051512;28;20032;-78
2021/01/29 13:07:52;;;;;;;5.45;1.15;;;;;;;;;;5051439;28;20032;-77
2021/01/29 13:10:18;;;;;;;3.42;1.00;;;;;;;;;;5052053;28;20024;-79
2021/01/29 13:12:55;;;;;;;5.50;1.00;;;;;;;;;;5052093;28;20039;-79
2021/01/29 13:15:40;;;;;;;5.10;1.40;;;;;;;;;;5051222;28;20032;-78
2021/01/29 13:18:14;;;;;;;4.40;1.00;;;;;;;;;;5051758;28;20115;-78
2021/01/29 13:20:42;;;;;;;4.70;1.10;;;;;;;;;;5051776;28;20491;-78
2021/01/29 13:23:27;;;;;;;3.47;1.00;;;;;;;;;;5069376;28;20040;-78
2021/01/29 13:25:54;;;;;;;7.40;2.33;;;;;;;;;;5068615;28;20035;-78
2021/01/29 13:28:20;;;;;;;;;;;;;;;;;;5051736;28;20115;-78
2021/01/29 13:30:46;;;;;;;2.78;0.90;;;;;;;;;;5084480;28;19970;-77
2021/01/29 13:33:21;;;;;;;2.03;0.80;;;;;;;;;;5050421;28;20595;-79
2021/01/29 13:35:51;;;;;;;2.55;1.00;;;2.90;99.90;;;;;;5049805;28;20121;-78
2021/01/29 13:38:26;;;;;;;1.90;1.02;;;;;;;;;;5064100;28;20035;-79
2021/01/29 13:40:52;;;;;;;2.92;0.90;;;;;;;;;;5030256;28;20025;-79
2021/01/29 13:43:36;;;;;;;2.53;0.80;;;;;;;;;;5048073;28;20025;-79
2021/01/29 13:46:08;;;;;;;2.45;0.50;;;;;;;;;;5048753;28;20028;-78
2021/01/29 13:48:34;;;;;;;1.38;0.60;;;;;;;;;;5033729;28;20112;-78
2021/01/29 13:51:23;;;;;;;2.17;0.55;;;;;;;;;;5031337;28;20047;-78
2021/01/29 13:53:49;;;;;;;1.77;0.70;;;;;;;;;;5031176;28;20082;-78
2021/01/29 13:56:22;;;;;;;2.92;0.57;;;;;;;;;;5031009;28;20048;-78
2021/01/29 13:58:55;;;;;;;1.83;0.60;;;;;;;;;;5031279;28;20063;-78
2021/01/29 14:01:30;;;;;;;0.95;0.52;;;;;;;;;;5031148;28;20029;-77
2021/01/29 14:04:02;;;;;;;2.08;0.63;;;;;;;;;;5030808;28;20500;-78
2021/01/29 14:06:29;;;;;;;3.25;0.57;;;;;;;;;;5029881;28;20041;-78
2021/01/29 14:08:56;;;;;;;3.20;0.43;;;;;;;;;;5030141;28;20115;-79
2021/01/29 14:11:40;;;;;;;2.38;0.63;;;;;;;;;;5034977;28;20155;-79
2021/01/29 14:14:30;;;;;;;2.22;0.40;;;;;;;;;;5042931;28;20025;-78
2021/01/29 14:17:11;;;;;;;0.63;0.30;;;;;;;;;;5020549;28;20059;-78
2021/01/29 14:19:45;;;;;;;1.17;0.40;;;;;;;;;;5033326;28;20021;-78
2021/01/29 14:22:22;;;;;;;2.63;0.60;;;;;;;;;;5033481;28;20025;-79
2021/01/29 14:25:02;;;;;;;4.72;1.00;;;;;;;;;;5054458;28;20042;-81
2021/01/29 14:27:40;;;;;;;3.35;0.80;;;;;;;;;;5041922;28;20119;-78
2021/01/29 14:30:10;;;;;;;3.65;1.45;;;;;;;;;;5035330;28;20025;-78
2021/01/29 14:32:55;;;;;;;6.55;1.83;;;;;;;;;;5035019;28;20053;-78
2021/01/29 14:35:33;;;;;;;5.40;1.67;;;;;;;;;;5033472;28;20025;-78
2021/01/29 14:38:08;;;;;;;6.00;1.20;;;;;;;;;;5034238;28;20029;-78
2021/01/29 14:40:40;;;;;;;7.03;1.85;;;;;;;;;;5035004;28;20064;-78
2021/01/29 14:43:25;;;;;;;7.63;1.48;;;;;;;;;;5034231;28;20029;-78
2021/01/29 14:45:58;;;;;;;3.15;1.05;;;;;;;;;;5032677;28;20032;-79
2021/01/29 14:48:30;;;;;;;10.68;1.38;;;;;;;;;;5033923;28;20071;-78
2021/01/29 14:50:56;;;;;;;5.35;1.10;;;;;;;;;;5033291;28;20020;-78
2021/01/29 14:53:42;;;;;;;3.13;0.90;;;;;;;;;;5033260;28;20375;-78
2021/01/29 14:56:14;;;;;;;4.20;1.13;;;;;;;;;;5016004;28;20037;-77
2021/01/29 14:58:43;;;;;;;2.28;0.90;;;;;;;;;;5032946;28;20032;-78
2021/01/29 15:01:12;;;;;;;2.33;0.95;;;;;;;;;;5034674;28;20131;-81
2021/01/29 15:21:41;;;;;;;45.20;21.15;;;;;;;;;;5089696;28;20402;-77
2021/01/29 15:24:07;;;;;;;17.42;3.30;;;;;;;;;;5072638;28;20083;-78
2021/01/29 15:26:33;;;;;;;17.00;2.95;;;;;;;;;;5073961;28;20020;-79
2021/01/29 15:29:12;;;;;;;17.02;4.10;;;;;;;;;;5073912;28;20031;-79
2021/01/29 15:53:05;;;;;;;5.00;1.23;;;;;;;;;;5089523;28;20048;-80
2021/01/29 15:55:41;;;;;;;5.20;1.07;;;;;;;;;;5074710;28;20054;-79
2021/01/29 16:30:14;;;;;;;55.00;22.55;;;;;;;;;;5089641;28;20062;-79
2021/01/29 16:32:41;;;;;;;97.15;39.88;;;;;;;;;;5073607;28;20051;-83
2021/01/29 16:35:11;;;;;;;192.77;78.68;;;;;;;;;;5071846;28;20056;-81
2021/01/29 16:37:39;;;;;;;41.80;21.15;;;;;;;;;;5073016;28;20032;-82
2021/01/29 16:40:13;;;;;;;33.53;12.60;;;;;;;;;;5072774;28;20556;-83
2021/01/29 16:42:39;;;;;;;33.00;14.50;;;;;;;;;;5072932;28;20052;-81
2021/01/29 16:45:05;;;;;;;19.90;5.72;;;;;;;;;;5091881;28;20070;-82
2021/01/29 16:50:19;;;;;;;7.88;3.03;;;;;;;;;;5748038;22;20048;-80
2021/01/29 16:52:53;;;;;;;9.60;2.83;;;;;;;;;;5053469;28;20028;-79
2021/01/29 16:55:20;;;;;;;14.20;3.47;;;;;;;;;;5051723;28;20028;-79
2021/01/29 16:57:57;;;;;;;23.33;7.80;;;;;;;;;;5052895;28;20136;-79
2021/01/29 17:00:24;;;;;;;28.35;10.40;;;;;;;;;;5051959;28;20768;-78
2021/01/29 17:02:50;;;;;;;12.90;3.83;;;;;;;;;;5052411;28;20387;-79
2021/01/29 17:05:22;;;;;;;11.98;3.88;;;;;;;;;;5052087;28;20029;-78
2021/01/29 17:07:48;;;;;;;12.55;3.20;;;;;;;;;;5054071;28;20029;-78
2021/01/29 17:10:26;;;;;;;10.60;3.20;;;;;;;;;;5052119;28;20038;-78
2021/01/29 17:12:54;;;;;;;9.48;3.00;;;;;;;;;;5051824;28;20028;-78
2021/01/29 17:15:20;;;;;;;;;;;;;;;;;;5052199;28;20074;-80
2021/01/29 17:17:48;;;;;;;9.43;4.18;;;;;;;;;;5052105;28;19912;-78
2021/01/29 17:20:16;;;;;;;14.88;4.53;;;;;;;;;;5054236;28;20538;-80
2021/01/29 17:22:45;;;;;;;11.05;2.50;;;;;;;;;;5052286;28;20048;-81
2021/01/29 17:25:33;;;;;;;7.95;2.15;;;;;;;;;;5051667;28;20067;-83
2021/01/29 17:28:00;;;;;;;9.40;2.65;;;;;;;;;;5055051;28;20054;-84
2021/01/29 17:30:34;;;;;;;8.43;2.70;;;;;;;;;;5054198;28;20053;-83